Time;durP1;ratioP1;P1;durP2;ratioP2;P2;SDS_P1;SDS_P2;PMS_P1;PMS_P2;Temp;Humidity;BMP_temperature;BMP_pressure;BME280_temperature;BME280_humidity;BME280_pressure;Samples;Min_cycle;Max_cycle;Signal;HPM_P1;HPM_P2
2021/12/22 00:01:11;;;;;;;41.45;23.73;;;1.60;99.90;;;;;;5036566;28;20021;-69
2021/12/22 00:03:39;;;;;;;51.50;27.80;;;1.60;99.90;;;;;;5037271;28;20060;-70
2021/12/22 00:06:04;;;;;;;42.15;24.20;;;1.50;99.90;;;;;;5037499;28;20021;-70
2021/12/22 00:08:30;;;;;;;64.72;36.67;;;1.60;99.90;;;;;;5037395;28;20029;-69
2021/12/22 00:10:56;;;;;;;45.88;26.20;;;1.70;99.90;;;;;;5037057;28;20079;-70
2021/12/22 00:13:22;;;;;;;47.80;26.77;;;1.70;99.90;;;;;;5037232;28;20029;-70
2021/12/22 00:15:47;;;;;;;48.83;28.75;;;1.70;99.90;;;;;;5036958;28;20025;-71
2021/12/22 00:18:13;;;;;;;51.50;27.85;;;1.70;99.90;;;;;;5036905;28;20497;-70
2021/12/22 00:20:39;;;;;;;42.80;24.67;;;1.70;99.90;;;;;;5036810;28;20029;-70
2021/12/22 00:23:05;;;;;;;44.10;24.67;;;1.60;99.90;;;;;;5036844;28;20029;-70
2021/12/22 00:25:31;;;;;;;47.33;24.67;;;1.70;99.90;;;;;;5037279;28;20079;-70
2021/12/22 00:27:58;;;;;;;45.05;24.27;;;1.50;99.90;;;;;;5036541;28;20088;-69
2021/12/22 00:30:24;;;;;;;41.38;21.83;;;1.50;99.90;;;;;;5036989;28;20502;-70
2021/12/22 00:32:53;;;;;;;44.33;23.65;;;1.60;99.90;;;;;;5036634;28;20107;-70
2021/12/22 00:35:21;;;;;;;40.58;21.17;;;1.60;99.90;;;;;;5036604;28;20484;-70
2021/12/22 00:37:47;;;;;;;47.75;27.60;;;1.70;99.90;;;;;;5036542;28;20026;-70
2021/12/22 00:40:13;;;;;;;42.85;24.40;;;1.70;99.90;;;;;;5036693;28;20101;-69
2021/12/22 00:42:39;;;;;;;45.15;23.35;;;1.50;99.90;;;;;;5036506;28;20030;-69
2021/12/22 00:45:05;;;;;;;41.63;24.38;;;1.50;99.90;;;;;;5036456;28;20018;-70
2021/12/22 00:47:31;;;;;;;39.95;23.02;;;1.50;99.90;;;;;;5035105;28;20462;-70
2021/12/22 00:49:58;;;;;;;43.25;24.35;;;1.50;99.90;;;;;;5036356;28;20474;-70
2021/12/22 00:52:24;;;;;;;47.95;27.08;;;1.40;99.90;;;;;;5036275;28;20505;-69
2021/12/22 00:54:50;;;;;;;44.30;26.83;;;1.40;99.90;;;;;;5036243;28;20053;-70
2021/12/22 00:57:17;;;;;;;45.25;24.92;;;1.50;99.90;;;;;;5036223;28;20029;-71
2021/12/22 00:59:44;;;;;;;40.03;23.10;;;1.50;99.90;;;;;;5036087;28;20535;-70
2021/12/22 01:02:14;;;;;;;48.90;24.35;;;1.80;99.90;;;;;;5036404;28;20075;-71
2021/12/22 01:04:41;;;;;;;40.78;22.60;;;1.50;99.90;;;;;;5036698;28;20472;-70
2021/12/22 01:07:07;;;;;;;53.47;30.02;;;1.40;99.90;;;;;;5036014;28;20026;-71
2021/12/22 01:09:33;;;;;;;38.60;20.65;;;1.50;99.90;;;;;;5036294;28;20018;-70
2021/12/22 01:11:59;;;;;;;46.53;23.55;;;1.40;99.90;;;;;;5035045;28;20040;-70
2021/12/22 01:14:25;;;;;;;38.10;20.27;;;1.30;99.90;;;;;;5035884;28;20363;-70
2021/12/22 01:16:55;;;;;;;38.58;21.65;;;1.20;99.90;;;;;;5035836;28;20032;-70
2021/12/22 01:19:29;;;;;;;35.58;20.05;;;1.10;99.90;;;;;;5035776;28;20393;-70
2021/12/22 01:22:04;;;;;;;40.38;21.90;;;1.10;99.90;;;;;;5035793;28;20076;-69
2021/12/22 01:24:33;;;;;;;40.53;21.05;;;1.10;99.90;;;;;;5034301;28;20112;-69
2021/12/22 01:27:08;;;;;;;39.88;21.38;;;1.00;99.90;;;;;;5035984;28;20026;-70
2021/12/22 01:29:39;;;;;;;34.25;20.08;;;1.10;99.90;;;;;;5035279;28;20125;-70
2021/12/22 01:32:08;;;;;;;41.47;20.35;;;1.00;99.90;;;;;;5036156;28;20054;-70
2021/12/22 01:34:33;;;;;;;35.35;18.60;;;1.00;99.90;;;;;;5036116;28;20057;-69
2021/12/22 01:36:59;;;;;;;36.53;20.40;;;0.90;99.90;;;;;;5035759;28;20453;-70
2021/12/22 01:39:25;;;;;;;38.67;18.85;;;0.90;99.90;;;;;;5035675;28;20026;-70
2021/12/22 01:41:50;;;;;;;39.92;19.92;;;1.00;99.90;;;;;;5035375;28;20105;-70
2021/12/22 01:44:31;;;;;;;42.67;21.55;;;0.90;99.90;;;;;;5035413;28;20028;-71
2021/12/22 01:49:50;;;;;;;39.22;21.15;;;1.10;99.90;;;;;;5035826;28;20117;-71
2021/12/22 01:52:17;;;;;;;37.85;19.92;;;1.00;99.90;;;;;;5035265;28;20061;-69
2021/12/22 01:54:50;;;;;;;36.53;19.27;;;1.00;99.90;;;;;;5035159;28;20092;-69
2021/12/22 01:57:18;;;;;;;36.60;20.00;;;1.00;99.90;;;;;;5035183;28;20025;-70
2021/12/22 01:59:47;;;;;;;36.88;19.90;;;0.90;99.90;;;;;;5035584;28;20024;-70
2021/12/22 02:02:14;;;;;;;37.35;20.13;;;1.20;99.90;;;;;;5035004;28;20025;-70
2021/12/22 02:04:41;;;;;;;37.33;18.25;;;1.10;99.90;;;;;;5035477;28;20022;-70
2021/12/22 02:07:08;;;;;;;37.40;19.05;;;1.20;99.90;;;;;;5033692;28;20556;-71
2021/12/22 02:12:07;;;;;;;36.75;18.55;;;1.50;99.90;;;;;;5035196;28;20512;-71
2021/12/22 02:14:33;;;;;;;36.70;20.30;;;1.50;99.90;;;;;;5035022;28;20113;-70
2021/12/22 02:16:59;;;;;;;35.60;18.63;;;1.50;99.90;;;;;;5034725;28;20462;-71
2021/12/22 02:19:24;;;;;;;35.72;19.10;;;1.70;99.90;;;;;;5034845;28;20029;-70
2021/12/22 02:21:55;;;;;;;36.22;18.42;;;1.50;99.90;;;;;;5034846;28;20032;-69
2021/12/22 02:24:21;;;;;;;37.30;19.10;;;1.40;99.90;;;;;;5032873;28;20024;-70
2021/12/22 02:26:52;;;;;;;36.50;19.88;;;1.20;99.90;;;;;;5034843;28;20026;-70
2021/12/22 02:29:24;;;;;;;41.08;21.80;;;1.20;99.90;;;;;;5033013;28;20147;-70
2021/12/22 02:32:04;;;;;;;31.65;17.33;;;1.30;99.90;;;;;;5035006;28;20029;-70
2021/12/22 02:34:39;;;;;;;32.88;17.80;;;1.20;99.90;;;;;;5032852;28;20028;-70
2021/12/22 02:37:10;;;;;;;47.22;24.63;;;1.10;99.90;;;;;;5034646;28;20097;-70
2021/12/22 02:39:36;;;;;;;32.13;17.10;;;1.10;99.90;;;;;;5034508;28;20056;-70
2021/12/22 02:42:03;;;;;;;32.63;17.13;;;1.00;99.90;;;;;;5034222;28;20021;-70
2021/12/22 02:44:28;;;;;;;34.65;19.55;;;0.90;99.90;;;;;;5034739;28;20017;-70
2021/12/22 02:46:54;;;;;;;34.50;18.58;;;0.80;99.90;;;;;;5034217;28;20021;-70
2021/12/22 02:49:20;;;;;;;33.10;18.88;;;0.90;99.90;;;;;;5034426;28;20025;-69
2021/12/22 02:51:45;;;;;;;31.15;16.75;;;0.90;99.90;;;;;;5034348;28;20450;-71
2021/12/22 03:02:06;;;;;;;34.28;18.27;;;0.80;99.90;;;;;;5034221;28;20466;-70
2021/12/22 03:04:30;;;;;;;33.28;18.55;;;0.80;99.90;;;;;;5033696;28;20017;-70
2021/12/22 03:07:04;;;;;;;31.65;16.98;;;0.80;99.90;;;;;;5034105;28;20033;-70
2021/12/22 03:09:33;;;;;;;35.10;16.50;;;0.80;99.90;;;;;;5033793;28;20450;-70
2021/12/22 03:12:03;;;;;;;36.10;17.20;;;0.70;99.90;;;;;;5033694;28;20030;-71
2021/12/22 03:14:29;;;;;;;34.20;17.80;;;0.60;99.90;;;;;;5033714;28;20049;-70
2021/12/22 03:16:56;;;;;;;32.78;18.67;;;0.60;99.90;;;;;;5033651;28;20437;-70
2021/12/22 03:19:25;;;;;;;35.03;18.15;;;0.70;99.90;;;;;;5033572;28;20061;-70
2021/12/22 03:21:58;;;;;;;40.83;18.70;;;0.70;99.90;;;;;;5033462;28;20070;-70
2021/12/22 03:24:24;;;;;;;35.88;17.40;;;0.70;99.90;;;;;;5033637;28;20021;-69
2021/12/22 03:26:50;;;;;;;36.08;19.30;;;0.70;99.90;;;;;;5033499;28;20018;-69
2021/12/22 03:29:18;;;;;;;36.38;20.42;;;0.80;99.90;;;;;;5033131;28;20049;-69
2021/12/22 03:31:45;;;;;;;32.45;16.67;;;0.70;99.90;;;;;;5033412;28;20026;-69
2021/12/22 03:34:11;;;;;;;38.55;17.55;;;0.60;99.90;;;;;;5031512;28;20448;-69
2021/12/22 03:36:38;;;;;;;35.30;17.20;;;0.50;99.90;;;;;;5033727;28;20101;-70
2021/12/22 03:39:05;;;;;;;32.90;17.15;;;0.30;99.90;;;;;;5033327;28;20033;-69
2021/12/22 03:41:32;;;;;;;36.40;17.83;;;0.20;99.90;;;;;;5033343;28;20049;-70
2021/12/22 03:43:58;;;;;;;36.75;18.98;;;0.20;99.90;;;;;;5033364;28;20044;-70
2021/12/22 03:46:23;;;;;;;38.75;19.98;;;0.10;99.90;;;;;;5033864;28;20018;-70
2021/12/22 03:48:49;;;;;;;32.15;17.55;;;0.10;99.90;;;;;;5033281;28;20029;-69
2021/12/22 03:51:15;;;;;;;35.55;18.70;;;0.20;99.90;;;;;;5033230;28;20025;-70
2021/12/22 03:53:41;;;;;;;36.40;19.38;;;0.30;99.90;;;;;;5033224;28;20036;-70
2021/12/22 03:56:06;;;;;;;34.95;17.08;;;0.60;99.90;;;;;;5033126;28;20026;-70
2021/12/22 03:58:32;;;;;;;30.40;17.48;;;0.60;99.90;;;;;;5033119;28;20037;-69
2021/12/22 04:00:58;;;;;;;31.20;16.77;;;0.60;99.90;;;;;;5033329;28;20096;-69
2021/12/22 04:03:28;;;;;;;34.58;17.50;;;0.50;99.90;;;;;;5033351;28;20022;-70
2021/12/22 04:05:54;;;;;;;;;;;0.60;99.90;;;;;;5032033;28;20021;-70
2021/12/22 04:08:19;;;;;;;31.60;16.30;;;0.80;99.90;;;;;;5033045;28;19905;-70
2021/12/22 04:10:47;;;;;;;33.25;17.38;;;1.10;99.90;;;;;;5033003;28;20034;-70
2021/12/22 04:13:13;;;;;;;34.20;16.40;;;1.20;99.90;;;;;;5032968;28;20479;-70
2021/12/22 04:15:39;;;;;;;30.98;17.23;;;1.20;99.90;;;;;;5033007;28;20063;-70
2021/12/22 04:18:06;;;;;;;28.80;15.98;;;1.10;99.90;;;;;;5032980;28;20076;-70
2021/12/22 04:20:32;;;;;;;29.40;15.65;;;1.00;99.90;;;;;;5033136;28;20033;-70
2021/12/22 04:22:59;;;;;;;31.88;16.60;;;0.80;99.90;;;;;;5032933;28;20486;-70
2021/12/22 04:25:26;;;;;;;32.92;17.40;;;0.50;99.90;;;;;;5032834;28;20375;-69
2021/12/22 04:28:03;;;;;;;32.25;17.83;;;0.30;99.90;;;;;;5032745;28;20030;-70
2021/12/22 04:30:29;;;;;;;33.65;17.23;;;0.30;99.90;;;;;;5033157;28;20382;-69
2021/12/22 04:32:55;;;;;;;31.40;16.98;;;0.20;99.90;;;;;;5033123;28;20136;-70
2021/12/22 04:35:20;;;;;;;32.10;17.40;;;0.30;99.90;;;;;;5032835;28;20115;-69
2021/12/22 04:37:46;;;;;;;33.05;18.38;;;0.20;99.90;;;;;;5032838;28;20110;-69
2021/12/22 04:40:14;;;;;;;30.52;17.15;;;0.20;99.90;;;;;;5032681;28;20021;-69
2021/12/22 04:42:40;;;;;;;32.92;18.00;;;0.20;99.90;;;;;;5033345;28;20474;-70
2021/12/22 04:45:07;;;;;;;36.78;19.20;;;-0.10;99.90;;;;;;5032714;28;20022;-70
2021/12/22 04:47:34;;;;;;;37.60;17.73;;;-0.10;99.90;;;;;;5036589;28;20052;-70
2021/12/22 04:50:01;;;;;;;34.08;18.10;;;0.00;99.90;;;;;;5036373;28;20076;-70
2021/12/22 04:52:36;;;;;;;35.55;18.52;;;0.10;99.90;;;;;;5036391;28;20018;-70
2021/12/22 04:55:03;;;;;;;34.83;18.30;;;0.20;99.90;;;;;;5036897;28;20436;-69
2021/12/22 04:57:31;;;;;;;35.42;18.08;;;0.10;99.90;;;;;;5036223;28;20025;-70
2021/12/22 04:59:57;;;;;;;34.45;18.77;;;0.20;99.90;;;;;;5036378;28;20033;-70
2021/12/22 05:02:22;;;;;;;39.08;19.08;;;0.40;99.90;;;;;;5036121;28;20018;-70
2021/12/22 05:04:48;;;;;;;30.88;16.92;;;0.50;99.90;;;;;;5036077;28;20497;-70
2021/12/22 05:07:14;;;;;;;33.63;18.38;;;0.60;99.90;;;;;;5036029;28;20079;-70
2021/12/22 05:09:39;;;;;;;33.22;17.42;;;0.70;99.90;;;;;;5036003;28;20489;-70
2021/12/22 05:12:06;;;;;;;31.38;16.58;;;0.60;99.90;;;;;;5035968;28;20028;-70
2021/12/22 05:14:31;;;;;;;36.97;19.17;;;0.30;99.90;;;;;;5035933;28;20037;-70
2021/12/22 05:16:59;;;;;;;32.78;18.00;;;0.20;99.90;;;;;;5034701;28;20486;-69
2021/12/22 05:19:25;;;;;;;36.28;16.92;;;0.20;99.90;;;;;;5035768;28;20048;-70
2021/12/22 05:21:51;;;;;;;32.67;17.50;;;0.30;99.90;;;;;;5036386;28;20052;-70
2021/12/22 05:24:17;;;;;;;31.60;18.05;;;0.50;99.90;;;;;;5035686;28;20034;-70
2021/12/22 05:26:43;;;;;;;34.30;18.10;;;0.60;99.90;;;;;;5035622;28;20021;-70
2021/12/22 05:29:09;;;;;;;33.83;18.77;;;0.60;99.90;;;;;;5035204;28;20479;-69
2021/12/22 05:31:34;;;;;;;33.28;17.98;;;0.40;99.90;;;;;;5035880;28;20021;-69
2021/12/22 05:34:00;;;;;;;32.08;17.25;;;0.10;99.90;;;;;;5035611;28;20048;-70
2021/12/22 05:36:26;;;;;;;33.80;18.55;;;0.10;99.90;;;;;;5035559;28;20044;-70
2021/12/22 05:38:52;;;;;;;36.55;17.90;;;0.20;99.90;;;;;;5035701;28;20022;-70
2021/12/22 05:41:18;;;;;;;32.15;17.75;;;0.20;99.90;;;;;;5035771;28;20017;-70
2021/12/22 05:43:44;;;;;;;36.22;18.40;;;0.30;99.90;;;;;;5035387;28;20037;-70
2021/12/22 05:46:09;;;;;;;35.38;19.42;;;0.50;99.90;;;;;;5035902;28;20032;-70
2021/12/22 05:48:35;;;;;;;32.13;18.42;;;0.60;99.90;;;;;;5035302;28;20029;-69
2021/12/22 05:51:02;;;;;;;35.70;19.45;;;0.70;99.90;;;;;;5035819;28;20071;-70
2021/12/22 05:53:28;;;;;;;32.53;18.70;;;0.80;99.90;;;;;;5035246;28;20437;-69
2021/12/22 05:55:55;;;;;;;32.72;17.55;;;0.80;99.90;;;;;;5035175;28;20021;-70
2021/12/22 05:58:22;;;;;;;34.45;19.15;;;0.70;99.90;;;;;;5034540;28;20482;-70
2021/12/22 06:00:48;;;;;;;34.10;17.00;;;0.60;99.90;;;;;;5035026;28;20477;-69
2021/12/22 06:03:14;;;;;;;38.25;19.00;;;0.70;99.90;;;;;;5035371;28;20022;-69
2021/12/22 06:05:40;;;;;;;35.80;20.17;;;0.70;99.90;;;;;;5034958;28;20087;-69
2021/12/22 06:08:06;;;;;;;36.75;19.52;;;0.70;99.90;;;;;;5034927;28;20022;-70
2021/12/22 06:10:34;;;;;;;36.55;19.70;;;0.60;99.90;;;;;;5034892;28;20511;-70
2021/12/22 06:13:08;;;;;;;38.25;18.77;;;0.60;99.90;;;;;;5034822;28;20555;-70
2021/12/22 06:15:35;;;;;;;32.60;17.77;;;0.70;99.90;;;;;;5035370;28;20029;-70
2021/12/22 06:18:02;;;;;;;37.08;19.42;;;0.60;99.90;;;;;;5035026;28;20482;-69
2021/12/22 06:20:29;;;;;;;35.13;19.10;;;0.60;99.90;;;;;;5034644;28;20087;-69
2021/12/22 06:22:55;;;;;;;34.10;17.77;;;0.60;99.90;;;;;;5034624;28;20045;-69
2021/12/22 06:25:22;;;;;;;37.83;19.20;;;0.60;99.90;;;;;;5034535;28;20010;-70
2021/12/22 06:27:47;;;;;;;33.03;18.33;;;0.60;99.90;;;;;;5034582;28;20036;-69
2021/12/22 06:30:13;;;;;;;37.20;19.67;;;0.50;99.90;;;;;;5034543;28;20104;-70
2021/12/22 06:32:39;;;;;;;38.65;19.75;;;0.60;99.90;;;;;;5034755;28;20037;-69
2021/12/22 06:35:05;;;;;;;35.03;18.65;;;0.60;99.90;;;;;;5034465;28;20465;-69
2021/12/22 06:37:31;;;;;;;36.83;19.95;;;0.50;99.90;;;;;;5034597;28;20025;-70
2021/12/22 06:39:57;;;;;;;38.83;19.60;;;0.60;99.90;;;;;;5034238;28;20103;-70
2021/12/22 06:42:23;;;;;;;35.30;20.02;;;0.50;99.90;;;;;;5034269;28;20025;-69
2021/12/22 06:44:50;;;;;;;36.63;19.25;;;0.50;99.90;;;;;;5034236;28;20489;-70
2021/12/22 06:47:15;;;;;;;38.90;18.85;;;0.40;99.90;;;;;;5034180;28;20025;-69
2021/12/22 06:49:41;;;;;;;41.65;21.60;;;0.50;99.90;;;;;;5034158;28;20030;-69
2021/12/22 06:52:07;;;;;;;35.15;19.27;;;0.50;99.90;;;;;;5034131;28;20061;-70
2021/12/22 06:54:33;;;;;;;37.70;20.05;;;0.50;99.90;;;;;;5034331;28;20115;-70
2021/12/22 06:56:59;;;;;;;36.20;19.83;;;0.40;99.90;;;;;;5034336;28;20037;-70
2021/12/22 06:59:24;;;;;;;36.00;20.00;;;0.20;99.90;;;;;;5033917;28;20031;-70
2021/12/22 07:01:51;;;;;;;33.10;17.52;;;0.20;99.90;;;;;;5033897;28;20025;-70
2021/12/22 07:04:17;;;;;;;37.88;20.35;;;0.30;99.90;;;;;;5034141;28;20018;-69
2021/12/22 07:06:43;;;;;;;34.22;18.27;;;0.10;99.90;;;;;;5033802;28;20107;-69
2021/12/22 07:09:09;;;;;;;35.40;19.02;;;0.10;99.90;;;;;;5033283;28;20022;-70
2021/12/22 07:11:36;;;;;;;35.55;18.17;;;0.20;99.90;;;;;;5033734;28;20441;-69
2021/12/22 07:14:03;;;;;;;31.50;17.35;;;0.20;99.90;;;;;;5033709;28;20041;-70
2021/12/22 07:16:29;;;;;;;30.52;18.00;;;0.10;99.90;;;;;;5033669;28;20064;-70
2021/12/22 07:18:56;;;;;;;35.30;17.90;;;0.00;99.90;;;;;;5033540;28;20025;-70
2021/12/22 07:21:23;;;;;;;35.03;18.98;;;0.10;99.90;;;;;;5033652;28;20025;-69
2021/12/22 07:23:49;;;;;;;35.83;18.80;;;0.00;99.90;;;;;;5033538;28;20535;-70
2021/12/22 07:26:15;;;;;;;35.67;19.25;;;0.10;99.90;;;;;;5033823;28;20033;-70
2021/12/22 07:28:45;;;;;;;33.95;18.60;;;0.10;99.90;;;;;;5033292;28;20052;-70
2021/12/22 07:31:11;;;;;;;;;;;0.00;99.90;;;;;;5033944;28;20074;-69
2021/12/22 07:33:37;;;;;;;34.17;17.55;;;0.00;99.90;;;;;;5033463;28;19970;-70
2021/12/22 07:36:05;;;;;;;34.42;18.73;;;0.00;99.90;;;;;;5033374;28;20025;-70
2021/12/22 07:38:39;;;;;;;35.17;18.05;;;0.00;99.90;;;;;;5033398;28;20026;-70
2021/12/22 07:41:07;;;;;;;32.65;16.85;;;-0.10;99.90;;;;;;5033244;28;20022;-70
2021/12/22 07:43:34;;;;;;;35.53;19.05;;;-0.20;99.90;;;;;;5033334;28;20034;-73
2021/12/22 07:46:00;;;;;;;34.78;18.05;;;-0.30;99.90;;;;;;5033294;28;20021;-75
2021/12/22 07:48:26;;;;;;;35.03;18.95;;;-0.30;99.90;;;;;;5033511;28;20036;-72
2021/12/22 07:50:52;;;;;;;36.67;18.55;;;-0.30;99.90;;;;;;5033779;28;20017;-73
2021/12/22 07:53:18;;;;;;;39.20;19.42;;;-0.40;99.90;;;;;;5033390;28;20513;-72
2021/12/22 07:55:44;;;;;;;37.17;19.95;;;-0.30;99.90;;;;;;5033479;28;20033;-72
2021/12/22 07:58:10;;;;;;;33.47;18.20;;;-0.20;99.90;;;;;;5033154;28;20041;-73
2021/12/22 08:00:36;;;;;;;31.85;17.00;;;-0.20;99.90;;;;;;5033349;28;20493;-72
2021/12/22 08:03:02;;;;;;;38.70;19.95;;;-0.40;99.90;;;;;;5033473;28;20026;-73
2021/12/22 08:05:28;;;;;;;33.88;18.05;;;-0.50;99.90;;;;;;5033103;28;20018;-71
2021/12/22 08:07:56;;;;;;;36.63;18.52;;;-0.50;99.90;;;;;;5033080;28;20025;-74
2021/12/22 08:10:22;;;;;;;38.47;19.17;;;-0.50;99.90;;;;;;5033022;28;20026;-74
2021/12/22 08:12:47;;;;;;;39.25;20.08;;;-0.40;99.90;;;;;;5033028;28;20481;-73
2021/12/22 08:15:15;;;;;;;33.65;18.38;;;-0.50;99.90;;;;;;5032959;28;20029;-72
2021/12/22 08:17:41;;;;;;;35.78;19.55;;;-0.50;99.90;;;;;;5032942;28;20025;-74
2021/12/22 08:20:07;;;;;;;36.38;20.25;;;-0.30;99.90;;;;;;5032916;28;20053;-73
2021/12/22 08:22:33;;;;;;;36.70;18.25;;;-0.10;99.90;;;;;;5036809;28;20068;-72
2021/12/22 08:24:58;;;;;;;37.17;18.35;;;0.00;99.90;;;;;;5037366;28;20022;-73
2021/12/22 08:27:24;;;;;;;34.88;18.17;;;0.00;99.90;;;;;;5036852;28;20097;-74
2021/12/22 08:29:50;;;;;;;35.72;19.23;;;0.00;99.90;;;;;;5036395;28;20509;-72
2021/12/22 08:32:17;;;;;;;36.63;19.92;;;-0.10;99.90;;;;;;5036989;28;20082;-72
2021/12/22 08:34:43;;;;;;;39.50;21.00;;;-0.10;99.90;;;;;;5036694;28;20030;-72
2021/12/22 08:39:57;;;;;;;38.38;20.33;;;0.10;99.90;;;;;;5036556;28;20403;-71
2021/12/22 08:42:25;;;;;;;30.33;17.23;;;0.00;99.90;;;;;;5036820;28;20087;-74
2021/12/22 08:44:52;;;;;;;33.70;17.98;;;-0.10;99.90;;;;;;5036492;28;20022;-74
2021/12/22 08:47:18;;;;;;;33.67;18.30;;;0.00;99.90;;;;;;5036481;28;20022;-73
2021/12/22 08:49:45;;;;;;;32.75;17.67;;;0.10;99.90;;;;;;5036399;28;20080;-74
2021/12/22 08:52:11;;;;;;;33.95;18.88;;;0.00;99.90;;;;;;5036417;28;20436;-70
2021/12/22 08:54:37;;;;;;;35.00;18.48;;;0.00;99.90;;;;;;5036357;28;20029;-72
2021/12/22 08:57:03;;;;;;;34.60;17.90;;;0.10;99.90;;;;;;5036299;28;20104;-73
2021/12/22 08:59:29;;;;;;;35.85;18.70;;;0.20;99.90;;;;;;5036447;28;20104;-73
2021/12/22 09:01:56;;;;;;;32.13;17.38;;;0.20;99.90;;;;;;5034929;28;20021;-71
2021/12/22 09:04:22;;;;;;;33.95;17.98;;;0.10;99.90;;;;;;5036138;28;20018;-71
2021/12/22 09:06:49;;;;;;;31.98;17.67;;;0.20;99.90;;;;;;5036345;28;20052;-73
2021/12/22 09:09:16;;;;;;;43.58;23.67;;;0.30;99.90;;;;;;5036084;28;20013;-74
2021/12/22 09:11:42;;;;;;;37.05;18.55;;;0.40;99.90;;;;;;5036367;28;20033;-72
2021/12/22 09:14:08;;;;;;;34.63;17.75;;;0.60;99.90;;;;;;5036030;28;20109;-73
2021/12/22 09:16:36;;;;;;;34.55;19.05;;;0.60;99.90;;;;;;5035988;28;20497;-72
2021/12/22 09:19:04;;;;;;;34.75;19.73;;;0.70;99.90;;;;;;5035754;28;20100;-73
2021/12/22 09:21:30;;;;;;;39.08;21.50;;;0.80;99.90;;;;;;5036127;28;20473;-72
2021/12/22 09:23:56;;;;;;;36.92;19.52;;;0.60;99.90;;;;;;5035748;28;20020;-72
2021/12/22 09:26:22;;;;;;;37.00;18.77;;;0.70;99.90;;;;;;5035709;28;20018;-73
2021/12/22 09:28:48;;;;;;;35.75;18.95;;;0.70;99.90;;;;;;5035834;28;20045;-72
2021/12/22 09:31:14;;;;;;;37.53;20.48;;;0.70;99.90;;;;;;5035923;28;20064;-71
2021/12/22 09:33:41;;;;;;;39.17;20.60;;;0.70;99.90;;;;;;5034845;28;20050;-73
2021/12/22 09:36:09;;;;;;;32.10;18.10;;;0.70;99.90;;;;;;5035544;28;20029;-73
2021/12/22 09:38:34;;;;;;;29.83;16.42;;;0.80;99.90;;;;;;5035489;28;20029;-73
2021/12/22 09:41:01;;;;;;;32.80;17.55;;;0.90;99.90;;;;;;5035389;28;20500;-73
2021/12/22 09:43:28;;;;;;;35.75;18.58;;;0.70;99.90;;;;;;5035697;28;20025;-70
2021/12/22 09:45:59;;;;;;;37.83;18.45;;;0.60;99.90;;;;;;5035415;28;20036;-73
2021/12/22 09:53:43;;;;;;;35.67;20.40;;;0.40;99.90;;;;;;5035239;28;20044;-72
2021/12/22 09:56:10;;;;;;;37.95;20.13;;;0.50;99.90;;;;;;5035268;28;20033;-73
2021/12/22 09:58:43;;;;;;;35.53;19.13;;;0.50;99.90;;;;;;5035152;28;20053;-74
2021/12/22 10:01:09;;;;;;;34.50;18.55;;;0.80;99.90;;;;;;5035337;28;20382;-74
2021/12/22 10:03:35;;;;;;;34.47;19.10;;;0.60;99.90;;;;;;5035320;28;20032;-73
2021/12/22 10:06:01;;;;;;;33.00;17.00;;;0.50;99.90;;;;;;5035316;28;20045;-71
2021/12/22 10:08:28;;;;;;;33.30;17.50;;;0.60;99.90;;;;;;5035244;28;20022;-74
2021/12/22 10:11:08;;;;;;;37.95;19.55;;;0.60;99.90;;;;;;5034888;28;20027;-73
2021/12/22 10:13:35;;;;;;;35.13;19.48;;;0.60;99.90;;;;;;5035165;28;20393;-72
2021/12/22 10:16:11;;;;;;;33.55;18.52;;;0.60;99.90;;;;;;5034796;28;20037;-72
2021/12/22 10:18:37;;;;;;;34.78;18.58;;;0.70;99.90;;;;;;5034777;28;20059;-73
2021/12/22 10:21:10;;;;;;;34.95;18.30;;;0.60;99.90;;;;;;5034880;28;20103;-73
2021/12/22 10:23:36;;;;;;;34.63;18.88;;;0.60;99.90;;;;;;5034840;28;20049;-75
2021/12/22 10:26:07;;;;;;;35.03;18.70;;;0.60;99.90;;;;;;5034622;28;20014;-73
2021/12/22 10:28:48;;;;;;;41.35;20.60;;;0.80;99.90;;;;;;5034712;28;20088;-72
2021/12/22 10:31:15;;;;;;;37.17;20.08;;;0.90;99.90;;;;;;5034786;28;20037;-73
2021/12/22 10:33:42;;;;;;;34.92;19.08;;;1.00;99.90;;;;;;5034534;28;20079;-71
2021/12/22 10:36:18;;;;;;;35.15;18.17;;;0.80;99.90;;;;;;5034422;28;20030;-71
2021/12/22 10:39:00;;;;;;;37.40;18.05;;;0.90;99.90;;;;;;5034933;28;20022;-73
2021/12/22 10:41:28;;;;;;;38.13;19.17;;;1.00;99.90;;;;;;5034832;28;20039;-71
2021/12/22 10:43:54;;;;;;;33.13;17.58;;;0.90;99.90;;;;;;5034085;28;20029;-74
2021/12/22 10:46:32;;;;;;;36.00;19.05;;;1.00;99.90;;;;;;5034243;28;20513;-74
2021/12/22 10:49:20;;;;;;;35.05;18.05;;;1.00;99.90;;;;;;5034502;28;20382;-73
2021/12/22 10:52:03;;;;;;;36.00;18.48;;;1.00;99.90;;;;;;5034688;28;20105;-72
2021/12/22 10:54:39;;;;;;;37.30;18.80;;;1.00;99.90;;;;;;5034068;28;20024;-75
2021/12/22 10:57:09;;;;;;;37.80;20.17;;;1.10;99.90;;;;;;5034053;28;20025;-73
2021/12/22 10:59:53;;;;;;;37.95;20.40;;;1.00;99.90;;;;;;5033855;28;20032;-72
2021/12/22 11:02:34;;;;;;;39.28;20.35;;;1.00;99.90;;;;;;5034264;28;20104;-71
2021/12/22 11:05:04;;;;;;;37.67;20.20;;;1.10;99.90;;;;;;5034210;28;20485;-72
2021/12/22 11:07:39;;;;;;;35.17;18.90;;;1.30;99.90;;;;;;5033939;28;20060;-74
2021/12/22 11:10:24;;;;;;;36.85;18.27;;;1.40;99.90;;;;;;5034138;28;20025;-72
2021/12/22 11:13:01;;;;;;;34.88;19.05;;;1.50;99.90;;;;;;5034134;28;20439;-74
2021/12/22 11:15:26;;;;;;;38.47;18.80;;;1.50;99.90;;;;;;5033843;28;20029;-73
2021/12/22 11:17:52;;;;;;;35.45;19.35;;;1.60;99.90;;;;;;5033745;28;20032;-71
2021/12/22 11:20:22;;;;;;;36.92;19.10;;;1.80;99.90;;;;;;5033850;28;20033;-73
2021/12/22 11:23:04;;;;;;;;;;;1.90;99.90;;;;;;5034407;28;20109;-72
2021/12/22 11:25:30;;;;;;;34.17;18.55;;;1.70;99.90;;;;;;5033561;28;19916;-72
2021/12/22 11:27:58;;;;;;;39.03;19.38;;;1.50;99.90;;;;;;5033348;28;20053;-72
2021/12/22 11:30:26;;;;;;;37.70;19.30;;;1.50;99.90;;;;;;5033843;28;20040;-72
2021/12/22 11:32:53;;;;;;;31.25;17.88;;;1.50;99.90;;;;;;5033748;28;20037;-73
2021/12/22 11:35:21;;;;;;;38.28;19.83;;;1.50;99.90;;;;;;5033499;28;20091;-73
2021/12/22 11:37:47;;;;;;;36.53;19.48;;;1.60;99.90;;;;;;5033438;28;20056;-71
2021/12/22 11:40:14;;;;;;;37.15;18.95;;;1.60;99.90;;;;;;5033274;28;20053;-73
2021/12/22 11:42:40;;;;;;;38.33;20.85;;;1.60;99.90;;;;;;5033346;28;20025;-72
2021/12/22 11:45:16;;;;;;;39.10;20.80;;;1.70;99.90;;;;;;5033296;28;20021;-74
2021/12/22 11:47:45;;;;;;;37.10;20.60;;;1.70;99.90;;;;;;5033588;28;20025;-71
2021/12/22 11:50:18;;;;;;;36.67;19.73;;;1.70;99.90;;;;;;5033788;28;20029;-73
2021/12/22 11:53:08;;;;;;;40.83;21.13;;;1.70;99.90;;;;;;5033795;28;20459;-73
2021/12/22 11:55:49;;;;;;;47.38;23.60;;;1.80;99.90;;;;;;5032972;28;20045;-72
2021/12/22 11:58:40;;;;;;;44.75;22.55;;;1.70;99.90;;;;;;5033524;28;20040;-72
2021/12/22 12:01:10;;;;;;;38.65;20.00;;;1.60;99.90;;;;;;5033019;28;20494;-73
2021/12/22 12:03:40;;;;;;;37.95;19.77;;;1.80;99.90;;;;;;5033109;28;20113;-71
2021/12/22 12:06:15;;;;;;;36.08;19.35;;;1.90;99.90;;;;;;5033652;28;20462;-74
2021/12/22 12:08:48;;;;;;;42.92;21.17;;;1.80;99.90;;;;;;5033367;28;20025;-71
2021/12/22 12:11:35;;;;;;;38.40;19.65;;;1.70;99.90;;;;;;5033642;28;20022;-71
2021/12/22 12:14:07;;;;;;;38.83;20.50;;;1.70;99.90;;;;;;5033375;28;20025;-72
2021/12/22 12:22:33;;;;;;;33.72;18.98;;;1.80;99.90;;;;;;5032713;28;20033;-72
2021/12/22 12:25:00;;;;;;;39.75;21.42;;;1.70;99.90;;;;;;5033450;28;20032;-74
2021/12/22 12:27:49;;;;;;;41.35;21.42;;;1.90;99.90;;;;;;5033184;28;20585;-71
2021/12/22 12:30:23;;;;;;;38.45;21.77;;;2.00;99.90;;;;;;5033198;28;20037;-71
2021/12/22 12:32:52;;;;;;;40.15;21.08;;;2.00;99.90;;;;;;5033416;28;20025;-73
2021/12/22 12:35:20;;;;;;;35.28;20.60;;;2.20;99.90;;;;;;5032802;28;20025;-72
2021/12/22 12:38:07;;;;;;;38.90;20.23;;;2.30;99.90;;;;;;5032831;28;20037;-72
2021/12/22 12:40:54;;;;;;;39.15;21.20;;;2.20;99.90;;;;;;5033002;28;20117;-72
2021/12/22 12:43:39;;;;;;;40.88;21.55;;;2.10;99.90;;;;;;5032790;28;20030;-72
2021/12/22 12:46:27;;;;;;;35.53;19.85;;;2.00;99.90;;;;;;5033053;28;20026;-72
2021/12/22 12:49:05;;;;;;;40.78;21.92;;;1.90;99.90;;;;;;5033296;28;20025;-73
2021/12/22 12:51:38;;;;;;;40.60;22.60;;;2.00;99.90;;;;;;5032697;28;20105;-75
2021/12/22 12:54:16;;;;;;;35.83;20.13;;;2.00;99.90;;;;;;5032682;28;20034;-72
2021/12/22 12:56:49;;;;;;;36.85;20.55;;;2.00;99.90;;;;;;5033028;28;20091;-73
2021/12/22 12:59:18;;;;;;;36.88;19.20;;;2.00;99.90;;;;;;5032582;28;20033;-74
2021/12/22 13:01:46;;;;;;;41.67;20.02;;;2.00;99.90;;;;;;5032887;28;20505;-71
2021/12/22 13:04:24;;;;;;;37.55;19.85;;;2.00;99.90;;;;;;5032615;28;20018;-71
2021/12/22 13:06:51;;;;;;;38.67;19.77;;;1.90;99.90;;;;;;5032860;28;20079;-72
2021/12/22 13:09:29;;;;;;;37.85;20.00;;;1.90;99.90;;;;;;5035604;28;20032;-72
2021/12/22 13:12:02;;;;;;;38.88;21.10;;;2.00;99.90;;;;;;5036387;28;20109;-72